sensor_id;sensor_type;location;lat;lon;timestamp;P1;durP1;ratioP1;P2;durP2;ratioP2
54871;SDS011;43914;57.680;11.982;2022-12-29T00:00:00;5.35;;;1.77;;
54871;SDS011;43914;57.680;11.982;2022-12-29T00:02:29;6.15;;;1.70;;
54871;SDS011;43914;57.680;11.982;2022-12-29T00:04:55;4.65;;;1.70;;
54871;SDS011;43914;57.680;11.982;2022-12-29T00:07:21;5.35;;;1.62;;
54871;SDS011;43914;57.680;11.982;2022-12-29T00:09:48;6.55;;;1.77;;
54871;SDS011;43914;57.680;11.982;2022-12-29T00:12:14;6.25;;;1.70;;
54871;SDS011;43914;57.680;11.982;2022-12-29T00:14:40;5.22;;;1.42;;
54871;SDS011;43914;57.680;11.982;2022-12-29T00:17:25;4.83;;;1.50;;
54871;SDS011;43914;57.680;11.982;2022-12-29T00:19:51;6.55;;;1.72;;
54871;SDS011;43914;57.680;11.982;2022-12-29T00:25:20;4.17;;;1.50;;
54871;SDS011;43914;57.680;11.982;2022-12-29T00:30:52;4.62;;;1.42;;
54871;SDS011;43914;57.680;11.982;2022-12-29T00:33:36;5.85;;;1.80;;
54871;SDS011;43914;57.680;11.982;2022-12-29T00:36:28;3.92;;;1.42;;
54871;SDS011;43914;57.680;11.982;2022-12-29T00:39:02;4.42;;;1.50;;
54871;SDS011;43914;57.680;11.982;2022-12-29T00:41:53;5.80;;;1.60;;
54871;SDS011;43914;57.680;11.982;2022-12-29T00:44:38;4.58;;;1.25;;
54871;SDS011;43914;57.680;11.982;2022-12-29T00:47:04;3.60;;;1.35;;
54871;SDS011;43914;57.680;11.982;2022-12-29T00:49:31;5.45;;;1.40;;
54871;SDS011;43914;57.680;11.982;2022-12-29T00:52:04;3.20;;;1.17;;
54871;SDS011;43914;57.680;11.982;2022-12-29T00:54:34;4.58;;;1.22;;
54871;SDS011;43914;57.680;11.982;2022-12-29T00:57:03;4.87;;;1.30;;
54871;SDS011;43914;57.680;11.982;2022-12-29T00:59:32;4.47;;;1.40;;
54871;SDS011;43914;57.680;11.982;2022-12-29T01:02:01;4.20;;;1.35;;
54871;SDS011;43914;57.680;11.982;2022-12-29T01:04:27;2.98;;;1.00;;
54871;SDS011;43914;57.680;11.982;2022-12-29T01:06:57;4.53;;;1.30;;
54871;SDS011;43914;57.680;11.982;2022-12-29T01:09:23;5.22;;;1.40;;
54871;SDS011;43914;57.680;11.982;2022-12-29T01:14:34;5.35;;;1.57;;
54871;SDS011;43914;57.680;11.982;2022-12-29T01:17:02;5.78;;;1.52;;
54871;SDS011;43914;57.680;11.982;2022-12-29T01:19:30;5.78;;;1.65;;
54871;SDS011;43914;57.680;11.982;2022-12-29T01:21:57;4.95;;;1.50;;
54871;SDS011;43914;57.680;11.982;2022-12-29T01:24:23;6.17;;;1.55;;
54871;SDS011;43914;57.680;11.982;2022-12-29T01:26:51;7.58;;;1.82;;
54871;SDS011;43914;57.680;11.982;2022-12-29T01:29:17;6.00;;;2.10;;
54871;SDS011;43914;57.680;11.982;2022-12-29T01:31:43;7.15;;;2.40;;
54871;SDS011;43914;57.680;11.982;2022-12-29T01:34:10;5.83;;;2.00;;
54871;SDS011;43914;57.680;11.982;2022-12-29T01:36:38;8.55;;;3.05;;
54871;SDS011;43914;57.680;11.982;2022-12-29T01:39:04;6.00;;;2.17;;
54871;SDS011;43914;57.680;11.982;2022-12-29T01:41:30;7.78;;;3.08;;
54871;SDS011;43914;57.680;11.982;2022-12-29T01:43:57;9.68;;;3.25;;
54871;SDS011;43914;57.680;11.982;2022-12-29T01:48:59;7.75;;;2.98;;
54871;SDS011;43914;57.680;11.982;2022-12-29T01:51:36;8.38;;;2.77;;
54871;SDS011;43914;57.680;11.982;2022-12-29T01:54:25;9.05;;;3.47;;
54871;SDS011;43914;57.680;11.982;2022-12-29T01:57:05;7.87;;;3.27;;
54871;SDS011;43914;57.680;11.982;2022-12-29T01:59:36;10.08;;;3.20;;
54871;SDS011;43914;57.680;11.982;2022-12-29T02:02:09;8.00;;;2.42;;
54871;SDS011;43914;57.680;11.982;2022-12-29T02:04:36;6.97;;;2.20;;
54871;SDS011;43914;57.680;11.982;2022-12-29T02:07:07;7.33;;;2.50;;
54871;SDS011;43914;57.680;11.982;2022-12-29T02:09:37;7.75;;;2.35;;
54871;SDS011;43914;57.680;11.982;2022-12-29T02:12:04;6.35;;;1.80;;
54871;SDS011;43914;57.680;11.982;2022-12-29T02:14:30;5.80;;;2.25;;
54871;SDS011;43914;57.680;11.982;2022-12-29T02:17:07;6.53;;;2.15;;
54871;SDS011;43914;57.680;11.982;2022-12-29T02:20:08;5.37;;;2.10;;
54871;SDS011;43914;57.680;11.982;2022-12-29T02:26:28;6.62;;;2.30;;
54871;SDS011;43914;57.680;11.982;2022-12-29T02:35:23;5.70;;;2.00;;
54871;SDS011;43914;57.680;11.982;2022-12-29T02:38:11;6.30;;;2.20;;
54871;SDS011;43914;57.680;11.982;2022-12-29T02:41:14;6.60;;;2.00;;
54871;SDS011;43914;57.680;11.982;2022-12-29T02:44:09;5.10;;;1.52;;
54871;SDS011;43914;57.680;11.982;2022-12-29T02:46:58;7.53;;;1.52;;
54871;SDS011;43914;57.680;11.982;2022-12-29T02:49:52;5.17;;;1.40;;
54871;SDS011;43914;57.680;11.982;2022-12-29T02:53:13;4.40;;;1.33;;
54871;SDS011;43914;57.680;11.982;2022-12-29T02:55:13;5.25;;;1.20;;
54871;SDS011;43914;57.680;11.982;2022-12-29T02:57:40;4.85;;;1.30;;
54871;SDS011;43914;57.680;11.982;2022-12-29T03:05:34;3.00;;;1.07;;
54871;SDS011;43914;57.680;11.982;2022-12-29T03:16:42;2.27;;;0.82;;
54871;SDS011;43914;57.680;11.982;2022-12-29T03:19:18;2.35;;;0.90;;
54871;SDS011;43914;57.680;11.982;2022-12-29T03:21:51;4.30;;;0.93;;
54871;SDS011;43914;57.680;11.982;2022-12-29T03:24:44;5.40;;;1.05;;
54871;SDS011;43914;57.680;11.982;2022-12-29T03:27:14;2.75;;;0.93;;
54871;SDS011;43914;57.680;11.982;2022-12-29T03:29:46;2.87;;;0.90;;
54871;SDS011;43914;57.680;11.982;2022-12-29T03:32:19;4.17;;;1.00;;
54871;SDS011;43914;57.680;11.982;2022-12-29T03:34:49;2.55;;;0.93;;
54871;SDS011;43914;57.680;11.982;2022-12-29T03:37:17;4.05;;;1.10;;
54871;SDS011;43914;57.680;11.982;2022-12-29T03:39:54;3.75;;;1.00;;
54871;SDS011;43914;57.680;11.982;2022-12-29T03:42:21;2.50;;;0.90;;
54871;SDS011;43914;57.680;11.982;2022-12-29T03:44:53;2.20;;;0.80;;
54871;SDS011;43914;57.680;11.982;2022-12-29T03:47:22;2.05;;;0.75;;
54871;SDS011;43914;57.680;11.982;2022-12-29T03:49:49;2.55;;;0.80;;
54871;SDS011;43914;57.680;11.982;2022-12-29T03:52:16;3.27;;;0.90;;
54871;SDS011;43914;57.680;11.982;2022-12-29T03:54:43;1.55;;;0.60;;
54871;SDS011;43914;57.680;11.982;2022-12-29T03:57:09;3.25;;;0.70;;
54871;SDS011;43914;57.680;11.982;2022-12-29T03:59:36;1.80;;;0.60;;
54871;SDS011;43914;57.680;11.982;2022-12-29T04:02:02;2.22;;;0.68;;
54871;SDS011;43914;57.680;11.982;2022-12-29T04:04:29;1.47;;;0.60;;
54871;SDS011;43914;57.680;11.982;2022-12-29T04:06:55;1.25;;;0.60;;
54871;SDS011;43914;57.680;11.982;2022-12-29T04:09:21;2.10;;;0.78;;
54871;SDS011;43914;57.680;11.982;2022-12-29T04:11:47;1.00;;;0.50;;
54871;SDS011;43914;57.680;11.982;2022-12-29T04:14:13;2.15;;;0.53;;
54871;SDS011;43914;57.680;11.982;2022-12-29T04:16:40;2.00;;;0.50;;
54871;SDS011;43914;57.680;11.982;2022-12-29T04:19:06;1.20;;;0.50;;
54871;SDS011;43914;57.680;11.982;2022-12-29T04:21:32;1.37;;;0.50;;
54871;SDS011;43914;57.680;11.982;2022-12-29T04:23:59;0.93;;;0.50;;
54871;SDS011;43914;57.680;11.982;2022-12-29T04:26:25;1.02;;;0.53;;
54871;SDS011;43914;57.680;11.982;2022-12-29T04:28:53;3.00;;;0.50;;
54871;SDS011;43914;57.680;11.982;2022-12-29T04:31:19;1.65;;;0.50;;
54871;SDS011;43914;57.680;11.982;2022-12-29T04:33:45;2.83;;;0.60;;
54871;SDS011;43914;57.680;11.982;2022-12-29T04:36:12;1.57;;;0.60;;
54871;SDS011;43914;57.680;11.982;2022-12-29T04:38:38;2.95;;;0.78;;
54871;SDS011;43914;57.680;11.982;2022-12-29T04:41:04;4.87;;;0.98;;
54871;SDS011;43914;57.680;11.982;2022-12-29T04:43:30;2.47;;;0.80;;
54871;SDS011;43914;57.680;11.982;2022-12-29T04:45:56;5.53;;;1.20;;
54871;SDS011;43914;57.680;11.982;2022-12-29T04:48:23;4.42;;;1.12;;
54871;SDS011;43914;57.680;11.982;2022-12-29T04:50:49;4.08;;;1.10;;
54871;SDS011;43914;57.680;11.982;2022-12-29T04:53:16;2.70;;;0.98;;
54871;SDS011;43914;57.680;11.982;2022-12-29T04:55:43;7.28;;;1.60;;
54871;SDS011;43914;57.680;11.982;2022-12-29T04:58:09;4.30;;;1.30;;
54871;SDS011;43914;57.680;11.982;2022-12-29T05:00:36;6.45;;;1.50;;
54871;SDS011;43914;57.680;11.982;2022-12-29T05:03:02;8.05;;;1.42;;
54871;SDS011;43914;57.680;11.982;2022-12-29T05:05:28;7.22;;;1.92;;
54871;SDS011;43914;57.680;11.982;2022-12-29T05:07:54;6.53;;;1.70;;
54871;SDS011;43914;57.680;11.982;2022-12-29T05:10:21;9.30;;;2.10;;
54871;SDS011;43914;57.680;11.982;2022-12-29T05:12:47;6.45;;;1.67;;
54871;SDS011;43914;57.680;11.982;2022-12-29T05:15:13;7.30;;;1.75;;
54871;SDS011;43914;57.680;11.982;2022-12-29T05:17:39;6.17;;;1.98;;
54871;SDS011;43914;57.680;11.982;2022-12-29T05:20:06;8.70;;;2.45;;
54871;SDS011;43914;57.680;11.982;2022-12-29T05:22:33;9.10;;;2.00;;
54871;SDS011;43914;57.680;11.982;2022-12-29T05:24:59;10.53;;;2.92;;
54871;SDS011;43914;57.680;11.982;2022-12-29T05:27:25;10.80;;;2.87;;
54871;SDS011;43914;57.680;11.982;2022-12-29T05:29:52;9.73;;;2.08;;
54871;SDS011;43914;57.680;11.982;2022-12-29T05:32:18;7.45;;;2.15;;
54871;SDS011;43914;57.680;11.982;2022-12-29T05:34:44;7.05;;;1.90;;
54871;SDS011;43914;57.680;11.982;2022-12-29T05:37:10;8.23;;;1.70;;
54871;SDS011;43914;57.680;11.982;2022-12-29T05:39:36;6.28;;;1.60;;
54871;SDS011;43914;57.680;11.982;2022-12-29T05:42:03;7.03;;;1.92;;
54871;SDS011;43914;57.680;11.982;2022-12-29T05:44:29;6.97;;;2.08;;
54871;SDS011;43914;57.680;11.982;2022-12-29T05:46:55;10.32;;;2.58;;
54871;SDS011;43914;57.680;11.982;2022-12-29T05:49:21;7.87;;;2.62;;
54871;SDS011;43914;57.680;11.982;2022-12-29T05:51:47;10.10;;;3.08;;
54871;SDS011;43914;57.680;11.982;2022-12-29T05:54:14;7.00;;;2.30;;
54871;SDS011;43914;57.680;11.982;2022-12-29T05:56:40;9.98;;;2.27;;
54871;SDS011;43914;57.680;11.982;2022-12-29T05:59:06;7.87;;;2.45;;
54871;SDS011;43914;57.680;11.982;2022-12-29T06:01:33;8.38;;;2.70;;
54871;SDS011;43914;57.680;11.982;2022-12-29T06:03:59;7.92;;;2.80;;
54871;SDS011;43914;57.680;11.982;2022-12-29T06:06:26;9.40;;;3.40;;
54871;SDS011;43914;57.680;11.982;2022-12-29T06:08:52;10.35;;;3.50;;
54871;SDS011;43914;57.680;11.982;2022-12-29T06:11:18;13.70;;;5.08;;
54871;SDS011;43914;57.680;11.982;2022-12-29T06:13:44;9.43;;;4.20;;
54871;SDS011;43914;57.680;11.982;2022-12-29T06:16:10;12.58;;;4.72;;
54871;SDS011;43914;57.680;11.982;2022-12-29T06:18:37;11.70;;;4.97;;
54871;SDS011;43914;57.680;11.982;2022-12-29T06:21:04;18.70;;;7.17;;
54871;SDS011;43914;57.680;11.982;2022-12-29T06:23:32;15.05;;;6.28;;
54871;SDS011;43914;57.680;11.982;2022-12-29T06:25:58;21.85;;;8.23;;
54871;SDS011;43914;57.680;11.982;2022-12-29T06:28:24;16.80;;;8.20;;
54871;SDS011;43914;57.680;11.982;2022-12-29T06:30:50;13.93;;;5.55;;
54871;SDS011;43914;57.680;11.982;2022-12-29T06:33:17;13.70;;;5.53;;
54871;SDS011;43914;57.680;11.982;2022-12-29T06:35:43;13.72;;;5.60;;
54871;SDS011;43914;57.680;11.982;2022-12-29T06:38:11;12.03;;;6.28;;
54871;SDS011;43914;57.680;11.982;2022-12-29T06:40:37;12.05;;;5.22;;
54871;SDS011;43914;57.680;11.982;2022-12-29T06:43:03;13.05;;;6.12;;
54871;SDS011;43914;57.680;11.982;2022-12-29T06:45:29;13.15;;;5.35;;
54871;SDS011;43914;57.680;11.982;2022-12-29T06:47:56;8.55;;;3.92;;
54871;SDS011;43914;57.680;11.982;2022-12-29T06:50:22;11.12;;;3.90;;
54871;SDS011;43914;57.680;11.982;2022-12-29T06:52:48;8.65;;;3.20;;
54871;SDS011;43914;57.680;11.982;2022-12-29T06:55:14;8.95;;;2.50;;
54871;SDS011;43914;57.680;11.982;2022-12-29T06:57:41;7.75;;;2.58;;
54871;SDS011;43914;57.680;11.982;2022-12-29T07:00:08;6.55;;;2.00;;
54871;SDS011;43914;57.680;11.982;2022-12-29T07:02:36;6.15;;;2.00;;
54871;SDS011;43914;57.680;11.982;2022-12-29T07:05:04;6.28;;;2.20;;
54871;SDS011;43914;57.680;11.982;2022-12-29T07:07:32;5.67;;;1.90;;
54871;SDS011;43914;57.680;11.982;2022-12-29T07:09:58;7.10;;;1.70;;
54871;SDS011;43914;57.680;11.982;2022-12-29T07:12:24;7.10;;;2.00;;
54871;SDS011;43914;57.680;11.982;2022-12-29T07:14:51;9.93;;;2.75;;
54871;SDS011;43914;57.680;11.982;2022-12-29T07:17:17;6.17;;;2.30;;
54871;SDS011;43914;57.680;11.982;2022-12-29T07:19:43;7.12;;;2.50;;
54871;SDS011;43914;57.680;11.982;2022-12-29T07:22:09;7.53;;;2.40;;
54871;SDS011;43914;57.680;11.982;2022-12-29T07:24:36;7.20;;;2.53;;
54871;SDS011;43914;57.680;11.982;2022-12-29T07:27:02;7.28;;;2.90;;
54871;SDS011;43914;57.680;11.982;2022-12-29T07:29:29;8.00;;;3.35;;
54871;SDS011;43914;57.680;11.982;2022-12-29T07:31:55;8.43;;;3.10;;
54871;SDS011;43914;57.680;11.982;2022-12-29T07:34:21;8.60;;;4.08;;
54871;SDS011;43914;57.680;11.982;2022-12-29T07:36:48;10.20;;;3.92;;
54871;SDS011;43914;57.680;11.982;2022-12-29T07:39:14;10.13;;;4.22;;
54871;SDS011;43914;57.680;11.982;2022-12-29T07:41:40;10.20;;;3.92;;
54871;SDS011;43914;57.680;11.982;2022-12-29T07:44:08;10.93;;;4.70;;
54871;SDS011;43914;57.680;11.982;2022-12-29T07:46:34;11.05;;;3.40;;
54871;SDS011;43914;57.680;11.982;2022-12-29T07:49:00;12.73;;;4.30;;
54871;SDS011;43914;57.680;11.982;2022-12-29T07:51:26;12.03;;;3.87;;
54871;SDS011;43914;57.680;11.982;2022-12-29T07:53:53;12.10;;;4.80;;
54871;SDS011;43914;57.680;11.982;2022-12-29T07:56:19;9.28;;;3.58;;
54871;SDS011;43914;57.680;11.982;2022-12-29T07:58:45;12.90;;;5.00;;
54871;SDS011;43914;57.680;11.982;2022-12-29T08:01:12;11.80;;;3.50;;
54871;SDS011;43914;57.680;11.982;2022-12-29T08:03:38;12.82;;;3.65;;
54871;SDS011;43914;57.680;11.982;2022-12-29T08:06:08;8.43;;;3.37;;
54871;SDS011;43914;57.680;11.982;2022-12-29T08:08:37;11.60;;;3.85;;
54871;SDS011;43914;57.680;11.982;2022-12-29T08:11:03;12.28;;;4.35;;
54871;SDS011;43914;57.680;11.982;2022-12-29T08:13:29;16.45;;;4.50;;
54871;SDS011;43914;57.680;11.982;2022-12-29T08:15:57;19.60;;;5.20;;
54871;SDS011;43914;57.680;11.982;2022-12-29T08:18:24;19.57;;;5.62;;
54871;SDS011;43914;57.680;11.982;2022-12-29T08:20:50;16.25;;;6.00;;
54871;SDS011;43914;57.680;11.982;2022-12-29T08:23:16;13.95;;;4.97;;
54871;SDS011;43914;57.680;11.982;2022-12-29T08:25:42;11.40;;;4.10;;
54871;SDS011;43914;57.680;11.982;2022-12-29T08:28:08;18.87;;;4.62;;
54871;SDS011;43914;57.680;11.982;2022-12-29T08:30:35;18.17;;;4.80;;
54871;SDS011;43914;57.680;11.982;2022-12-29T08:33:02;11.25;;;2.95;;
54871;SDS011;43914;57.680;11.982;2022-12-29T08:35:28;20.20;;;4.12;;
54871;SDS011;43914;57.680;11.982;2022-12-29T08:37:54;14.60;;;3.90;;
54871;SDS011;43914;57.680;11.982;2022-12-29T08:40:20;12.98;;;3.77;;
54871;SDS011;43914;57.680;11.982;2022-12-29T08:42:47;20.23;;;3.90;;
54871;SDS011;43914;57.680;11.982;2022-12-29T08:45:13;14.50;;;2.77;;
54871;SDS011;43914;57.680;11.982;2022-12-29T08:47:39;18.17;;;3.65;;
54871;SDS011;43914;57.680;11.982;2022-12-29T08:50:05;13.38;;;3.27;;
54871;SDS011;43914;57.680;11.982;2022-12-29T08:52:34;14.07;;;3.37;;
54871;SDS011;43914;57.680;11.982;2022-12-29T08:55:00;17.35;;;3.27;;
54871;SDS011;43914;57.680;11.982;2022-12-29T08:57:26;13.28;;;3.02;;
54871;SDS011;43914;57.680;11.982;2022-12-29T08:59:53;13.60;;;3.58;;
54871;SDS011;43914;57.680;11.982;2022-12-29T09:02:19;13.68;;;3.45;;
54871;SDS011;43914;57.680;11.982;2022-12-29T09:04:45;17.42;;;3.87;;
54871;SDS011;43914;57.680;11.982;2022-12-29T09:07:11;13.80;;;4.03;;
54871;SDS011;43914;57.680;11.982;2022-12-29T09:09:38;19.17;;;4.58;;
54871;SDS011;43914;57.680;11.982;2022-12-29T09:12:04;17.05;;;4.62;;
54871;SDS011;43914;57.680;11.982;2022-12-29T09:14:30;19.02;;;4.30;;
54871;SDS011;43914;57.680;11.982;2022-12-29T09:16:56;14.73;;;4.70;;
54871;SDS011;43914;57.680;11.982;2022-12-29T09:19:41;16.62;;;4.87;;
54871;SDS011;43914;57.680;11.982;2022-12-29T09:22:07;15.85;;;5.40;;
54871;SDS011;43914;57.680;11.982;2022-12-29T09:24:33;21.70;;;5.22;;
54871;SDS011;43914;57.680;11.982;2022-12-29T09:27:00;19.02;;;6.67;;
54871;SDS011;43914;57.680;11.982;2022-12-29T09:29:26;21.77;;;7.30;;
54871;SDS011;43914;57.680;11.982;2022-12-29T09:31:52;20.43;;;8.50;;
54871;SDS011;43914;57.680;11.982;2022-12-29T09:34:18;19.10;;;8.23;;
54871;SDS011;43914;57.680;11.982;2022-12-29T09:36:46;18.15;;;8.18;;
54871;SDS011;43914;57.680;11.982;2022-12-29T09:39:12;18.62;;;9.63;;
54871;SDS011;43914;57.680;11.982;2022-12-29T09:41:40;20.23;;;9.25;;
54871;SDS011;43914;57.680;11.982;2022-12-29T09:47:23;19.20;;;9.40;;
54871;SDS011;43914;57.680;11.982;2022-12-29T09:50:05;16.45;;;7.28;;
54871;SDS011;43914;57.680;11.982;2022-12-29T09:52:36;16.82;;;7.97;;
54871;SDS011;43914;57.680;11.982;2022-12-29T09:55:26;13.30;;;6.42;;
54871;SDS011;43914;57.680;11.982;2022-12-29T10:01:04;13.40;;;7.17;;
54871;SDS011;43914;57.680;11.982;2022-12-29T10:06:22;16.55;;;6.50;;
54871;SDS011;43914;57.680;11.982;2022-12-29T10:09:19;17.05;;;7.17;;
54871;SDS011;43914;57.680;11.982;2022-12-29T10:12:30;22.73;;;8.83;;
54871;SDS011;43914;57.680;11.982;2022-12-29T10:18:19;18.23;;;8.03;;
54871;SDS011;43914;57.680;11.982;2022-12-29T10:23:55;21.82;;;7.08;;
54871;SDS011;43914;57.680;11.982;2022-12-29T10:26:25;19.60;;;6.75;;
54871;SDS011;43914;57.680;11.982;2022-12-29T10:31:38;21.57;;;7.40;;
54871;SDS011;43914;57.680;11.982;2022-12-29T10:34:25;24.77;;;6.53;;
54871;SDS011;43914;57.680;11.982;2022-12-29T10:39:56;15.48;;;5.17;;
54871;SDS011;43914;57.680;11.982;2022-12-29T10:42:33;12.88;;;4.22;;
54871;SDS011;43914;57.680;11.982;2022-12-29T10:45:02;21.17;;;4.65;;
54871;SDS011;43914;57.680;11.982;2022-12-29T10:47:34;15.60;;;4.70;;
54871;SDS011;43914;57.680;11.982;2022-12-29T10:50:04;21.03;;;4.40;;
54871;SDS011;43914;57.680;11.982;2022-12-29T10:52:31;13.60;;;3.65;;
54871;SDS011;43914;57.680;11.982;2022-12-29T10:55:04;21.23;;;4.00;;
54871;SDS011;43914;57.680;11.982;2022-12-29T11:00:13;20.82;;;3.60;;
54871;SDS011;43914;57.680;11.982;2022-12-29T11:05:36;19.60;;;4.10;;
54871;SDS011;43914;57.680;11.982;2022-12-29T11:08:35;20.55;;;3.50;;
54871;SDS011;43914;57.680;11.982;2022-12-29T11:11:07;23.55;;;3.15;;
54871;SDS011;43914;57.680;11.982;2022-12-29T11:13:36;20.75;;;4.05;;
54871;SDS011;43914;57.680;11.982;2022-12-29T11:16:18;18.52;;;3.00;;
54871;SDS011;43914;57.680;11.982;2022-12-29T11:18:55;21.25;;;3.58;;
54871;SDS011;43914;57.680;11.982;2022-12-29T11:21:27;23.67;;;4.03;;
54871;SDS011;43914;57.680;11.982;2022-12-29T11:24:19;19.92;;;3.12;;
54871;SDS011;43914;57.680;11.982;2022-12-29T11:26:52;21.87;;;3.22;;
54871;SDS011;43914;57.680;11.982;2022-12-29T11:29:25;25.00;;;3.62;;
54871;SDS011;43914;57.680;11.982;2022-12-29T11:31:54;20.08;;;3.10;;
54871;SDS011;43914;57.680;11.982;2022-12-29T11:34:30;20.02;;;2.95;;
54871;SDS011;43914;57.680;11.982;2022-12-29T11:37:00;25.00;;;3.52;;
54871;SDS011;43914;57.680;11.982;2022-12-29T11:42:15;24.77;;;3.27;;
54871;SDS011;43914;57.680;11.982;2022-12-29T11:44:48;22.27;;;4.35;;
54871;SDS011;43914;57.680;11.982;2022-12-29T11:47:26;31.87;;;3.80;;
54871;SDS011;43914;57.680;11.982;2022-12-29T11:49:59;25.37;;;4.08;;
54871;SDS011;43914;57.680;11.982;2022-12-29T11:52:30;25.82;;;3.45;;
54871;SDS011;43914;57.680;11.982;2022-12-29T11:55:01;26.57;;;3.70;;
54871;SDS011;43914;57.680;11.982;2022-12-29T11:57:31;30.57;;;3.83;;
54871;SDS011;43914;57.680;11.982;2022-12-29T12:00:00;25.20;;;3.42;;
54871;SDS011;43914;57.680;11.982;2022-12-29T12:02:50;26.75;;;3.65;;
54871;SDS011;43914;57.680;11.982;2022-12-29T12:05:26;29.05;;;3.90;;
54871;SDS011;43914;57.680;11.982;2022-12-29T12:11:12;23.73;;;3.42;;
54871;SDS011;43914;57.680;11.982;2022-12-29T12:13:56;20.80;;;3.00;;
54871;SDS011;43914;57.680;11.982;2022-12-29T12:16:31;20.55;;;3.08;;
54871;SDS011;43914;57.680;11.982;2022-12-29T12:19:23;23.90;;;4.05;;
54871;SDS011;43914;57.680;11.982;2022-12-29T12:22:29;21.65;;;3.27;;
54871;SDS011;43914;57.680;11.982;2022-12-29T12:25:17;22.82;;;3.12;;
54871;SDS011;43914;57.680;11.982;2022-12-29T12:30:38;24.30;;;3.52;;
54871;SDS011;43914;57.680;11.982;2022-12-29T12:33:22;26.95;;;3.30;;
54871;SDS011;43914;57.680;11.982;2022-12-29T12:44:49;28.10;;;3.87;;
54871;SDS011;43914;57.680;11.982;2022-12-29T12:47:29;28.95;;;4.30;;
54871;SDS011;43914;57.680;11.982;2022-12-29T12:56:03;22.60;;;3.45;;
54871;SDS011;43914;57.680;11.982;2022-12-29T12:58:49;20.85;;;2.92;;
54871;SDS011;43914;57.680;11.982;2022-12-29T13:18:44;20.25;;;3.40;;
54871;SDS011;43914;57.680;11.982;2022-12-29T13:21:51;32.08;;;4.25;;
54871;SDS011;43914;57.680;11.982;2022-12-29T13:24:31;16.85;;;3.00;;
54871;SDS011;43914;57.680;11.982;2022-12-29T13:30:19;24.37;;;3.83;;
54871;SDS011;43914;57.680;11.982;2022-12-29T13:33:06;25.48;;;3.33;;
54871;SDS011;43914;57.680;11.982;2022-12-29T13:39:03;31.63;;;3.83;;
54871;SDS011;43914;57.680;11.982;2022-12-29T13:41:54;25.50;;;4.03;;
54871;SDS011;43914;57.680;11.982;2022-12-29T13:50:16;27.35;;;3.90;;
54871;SDS011;43914;57.680;11.982;2022-12-29T13:55:49;24.82;;;3.77;;
54871;SDS011;43914;57.680;11.982;2022-12-29T14:03:47;23.70;;;3.77;;
54871;SDS011;43914;57.680;11.982;2022-12-29T14:06:22;20.77;;;3.92;;
54871;SDS011;43914;57.680;11.982;2022-12-29T14:11:32;24.37;;;3.47;;
54871;SDS011;43914;57.680;11.982;2022-12-29T14:14:13;31.65;;;3.60;;
54871;SDS011;43914;57.680;11.982;2022-12-29T14:16:51;18.25;;;3.05;;
54871;SDS011;43914;57.680;11.982;2022-12-29T14:19:19;19.57;;;2.90;;
54871;SDS011;43914;57.680;11.982;2022-12-29T14:21:59;24.77;;;3.92;;
54871;SDS011;43914;57.680;11.982;2022-12-29T14:35:00;35.00;;;5.80;;
54871;SDS011;43914;57.680;11.982;2022-12-29T14:37:46;28.92;;;4.28;;
54871;SDS011;43914;57.680;11.982;2022-12-29T14:42:53;33.05;;;5.53;;
54871;SDS011;43914;57.680;11.982;2022-12-29T14:45:28;32.20;;;5.08;;
54871;SDS011;43914;57.680;11.982;2022-12-29T14:47:57;28.75;;;4.15;;
54871;SDS011;43914;57.680;11.982;2022-12-29T14:56:19;29.77;;;4.08;;
54871;SDS011;43914;57.680;11.982;2022-12-29T15:01:32;27.00;;;2.90;;
54871;SDS011;43914;57.680;11.982;2022-12-29T15:04:25;30.05;;;3.40;;
54871;SDS011;43914;57.680;11.982;2022-12-29T15:06:49;27.05;;;3.58;;
54871;SDS011;43914;57.680;11.982;2022-12-29T15:12:05;29.30;;;3.25;;
54871;SDS011;43914;57.680;11.982;2022-12-29T15:14:39;25.77;;;3.87;;
54871;SDS011;43914;57.680;11.982;2022-12-29T15:17:24;16.95;;;2.60;;
54871;SDS011;43914;57.680;11.982;2022-12-29T15:19:56;19.07;;;2.55;;
54871;SDS011;43914;57.680;11.982;2022-12-29T15:22:25;25.48;;;2.77;;
54871;SDS011;43914;57.680;11.982;2022-12-29T15:24:56;18.02;;;2.52;;
54871;SDS011;43914;57.680;11.982;2022-12-29T15:27:24;23.70;;;2.37;;
54871;SDS011;43914;57.680;11.982;2022-12-29T15:29:55;20.75;;;2.30;;
54871;SDS011;43914;57.680;11.982;2022-12-29T15:32:40;23.00;;;2.70;;
54871;SDS011;43914;57.680;11.982;2022-12-29T15:37:58;17.70;;;2.22;;
54871;SDS011;43914;57.680;11.982;2022-12-29T15:40:31;17.35;;;1.80;;
54871;SDS011;43914;57.680;11.982;2022-12-29T15:43:22;14.23;;;1.80;;
54871;SDS011;43914;57.680;11.982;2022-12-29T15:45:53;17.42;;;2.52;;
54871;SDS011;43914;57.680;11.982;2022-12-29T15:48:21;16.07;;;2.15;;
54871;SDS011;43914;57.680;11.982;2022-12-29T15:50:49;21.60;;;2.55;;
54871;SDS011;43914;57.680;11.982;2022-12-29T15:55:55;17.65;;;2.30;;
54871;SDS011;43914;57.680;11.982;2022-12-29T15:58:26;18.50;;;2.50;;
54871;SDS011;43914;57.680;11.982;2022-12-29T16:00:56;18.77;;;2.67;;
54871;SDS011;43914;57.680;11.982;2022-12-29T16:03:26;20.35;;;2.67;;
54871;SDS011;43914;57.680;11.982;2022-12-29T16:06:23;20.27;;;2.75;;
54871;SDS011;43914;57.680;11.982;2022-12-29T16:11:38;19.35;;;2.70;;
54871;SDS011;43914;57.680;11.982;2022-12-29T16:14:19;24.55;;;3.58;;
54871;SDS011;43914;57.680;11.982;2022-12-29T16:16:45;17.92;;;2.50;;
54871;SDS011;43914;57.680;11.982;2022-12-29T16:19:36;21.90;;;3.25;;
54871;SDS011;43914;57.680;11.982;2022-12-29T16:22:08;17.92;;;2.60;;
54871;SDS011;43914;57.680;11.982;2022-12-29T16:24:43;21.40;;;3.00;;
54871;SDS011;43914;57.680;11.982;2022-12-29T16:27:18;23.85;;;3.20;;
54871;SDS011;43914;57.680;11.982;2022-12-29T16:29:46;22.50;;;3.12;;
54871;SDS011;43914;57.680;11.982;2022-12-29T16:32:28;24.05;;;3.33;;
54871;SDS011;43914;57.680;11.982;2022-12-29T16:35:02;20.80;;;3.85;;
54871;SDS011;43914;57.680;11.982;2022-12-29T16:37:37;22.50;;;3.02;;
54871;SDS011;43914;57.680;11.982;2022-12-29T16:40:23;23.20;;;3.22;;
54871;SDS011;43914;57.680;11.982;2022-12-29T16:43:00;16.12;;;2.87;;
54871;SDS011;43914;57.680;11.982;2022-12-29T16:53:51;19.90;;;3.05;;
54871;SDS011;43914;57.680;11.982;2022-12-29T16:56:20;26.45;;;3.40;;
54871;SDS011;43914;57.680;11.982;2022-12-29T16:58:56;14.87;;;2.58;;
54871;SDS011;43914;57.680;11.982;2022-12-29T17:01:34;21.90;;;4.22;;
54871;SDS011;43914;57.680;11.982;2022-12-29T17:04:05;14.63;;;2.45;;
54871;SDS011;43914;57.680;11.982;2022-12-29T17:06:34;24.45;;;3.62;;
54871;SDS011;43914;57.680;11.982;2022-12-29T17:09:00;24.12;;;3.45;;
54871;SDS011;43914;57.680;11.982;2022-12-29T17:11:33;21.70;;;3.17;;
54871;SDS011;43914;57.680;11.982;2022-12-29T17:14:19;25.25;;;3.25;;
54871;SDS011;43914;57.680;11.982;2022-12-29T17:17:15;19.92;;;3.08;;
54871;SDS011;43914;57.680;11.982;2022-12-29T17:19:45;21.68;;;3.30;;
54871;SDS011;43914;57.680;11.982;2022-12-29T17:22:24;24.47;;;2.92;;
54871;SDS011;43914;57.680;11.982;2022-12-29T17:24:53;22.48;;;3.00;;
54871;SDS011;43914;57.680;11.982;2022-12-29T17:27:23;20.97;;;3.40;;
54871;SDS011;43914;57.680;11.982;2022-12-29T17:30:08;23.05;;;3.25;;
54871;SDS011;43914;57.680;11.982;2022-12-29T17:32:52;22.93;;;3.67;;
54871;SDS011;43914;57.680;11.982;2022-12-29T17:35:27;19.57;;;2.95;;
54871;SDS011;43914;57.680;11.982;2022-12-29T17:37:53;22.13;;;3.25;;